Time;durP1;ratioP1;P1;durP2;ratioP2;P2;SDS_P1;SDS_P2;PMS_P1;PMS_P2;Temp;Humidity;BMP_temperature;BMP_pressure;BME280_temperature;BME280_humidity;BME280_pressure;Samples;Min_cycle;Max_cycle;Signal;HPM_P1;HPM_P2
2021/08/28 00:01:23;;;;;;;17.75;3.70;;;15.30;99.90;;;;;;5034464;28;20087;-59
2021/08/28 00:03:49;;;;;;;15.88;4.32;;;15.30;99.90;;;;;;5032846;28;20095;-59
2021/08/28 00:06:14;;;;;;;13.10;4.53;;;15.30;99.90;;;;;;5033885;28;20390;-58
2021/08/28 00:08:40;;;;;;;15.95;4.90;;;15.40;99.90;;;;;;5034025;28;20029;-59
2021/08/28 00:11:05;;;;;;;12.85;4.55;;;15.50;99.90;;;;;;5034057;28;20109;-59
2021/08/28 00:13:31;;;;;;;14.00;4.40;;;15.50;99.90;;;;;;5034110;28;20089;-58
2021/08/28 00:15:56;;;;;;;17.40;5.32;;;15.50;99.90;;;;;;5033890;28;20029;-58
2021/08/28 00:18:22;;;;;;;12.15;5.38;;;15.40;99.90;;;;;;5033896;28;20097;-59
2021/08/28 00:20:48;;;;;;;19.25;5.93;;;15.40;99.90;;;;;;5033784;28;20091;-59
2021/08/28 00:23:13;;;;;;;19.42;6.55;;;15.30;99.90;;;;;;5033865;28;20025;-59
2021/08/28 00:25:39;;;;;;;18.67;7.40;;;15.30;99.90;;;;;;5033816;28;20022;-59
2021/08/28 00:28:05;;;;;;;19.08;6.57;;;15.20;99.90;;;;;;5033745;28;20363;-59
2021/08/28 00:30:30;;;;;;;27.92;7.22;;;15.20;99.90;;;;;;5033670;28;20034;-59
2021/08/28 00:32:57;;;;;;;21.48;7.63;;;15.20;99.90;;;;;;5033879;28;20100;-59
2021/08/28 00:35:22;;;;;;;18.75;7.18;;;15.10;99.90;;;;;;5033434;28;20398;-59
2021/08/28 00:37:48;;;;;;;17.60;7.40;;;15.10;99.90;;;;;;5033726;28;20025;-58
2021/08/28 00:40:14;;;;;;;22.52;8.27;;;15.10;99.90;;;;;;5032173;28;20025;-58
2021/08/28 00:42:47;;;;;;;23.63;7.80;;;15.10;99.90;;;;;;5033634;28;20045;-59
2021/08/28 00:45:13;;;;;;;19.40;7.63;;;15.00;99.90;;;;;;5032161;28;20022;-58
2021/08/28 00:47:39;;;;;;;19.30;7.38;;;15.00;99.90;;;;;;5033096;28;20028;-58
2021/08/28 00:50:06;;;;;;;19.98;7.72;;;14.90;99.90;;;;;;5033382;28;20040;-58
2021/08/28 00:52:31;;;;;;;17.73;7.70;;;15.00;99.90;;;;;;5033245;28;20026;-59
2021/08/28 00:54:57;;;;;;;23.60;8.32;;;14.90;99.90;;;;;;5033308;28;20104;-59
2021/08/28 00:57:22;;;;;;;22.83;8.70;;;14.90;99.90;;;;;;5032586;28;20048;-59
2021/08/28 00:59:48;;;;;;;23.73;8.07;;;14.90;99.90;;;;;;5032867;28;20065;-59
2021/08/28 01:02:14;;;;;;;20.00;8.32;;;15.00;99.90;;;;;;5032910;28;20022;-59
2021/08/28 01:04:51;;;;;;;23.25;8.43;;;15.00;99.90;;;;;;5031760;28;20024;-58
2021/08/28 01:07:16;;;;;;;20.05;8.27;;;14.90;99.90;;;;;;5032919;28;20026;-59
2021/08/28 01:09:45;;;;;;;20.50;8.27;;;14.90;99.90;;;;;;5032883;28;20040;-58
2021/08/28 01:12:23;;;;;;;17.15;8.70;;;14.80;99.90;;;;;;5032770;28;20044;-59
2021/08/28 01:15:07;;;;;;;23.95;9.48;;;14.80;99.90;;;;;;5033023;28;20037;-58
2021/08/28 01:17:35;;;;;;;21.88;9.27;;;14.90;99.90;;;;;;5032853;28;20029;-58
2021/08/28 01:20:20;;;;;;;25.10;9.02;;;14.80;99.90;;;;;;5032536;28;20035;-59
2021/08/28 01:22:48;;;;;;;24.88;9.80;;;14.90;99.90;;;;;;5032448;28;20107;-58
2021/08/28 01:25:15;;;;;;;22.83;9.52;;;14.80;99.90;;;;;;5032656;28;20414;-58
2021/08/28 01:27:40;;;;;;;21.73;9.07;;;14.80;99.90;;;;;;5032464;28;20021;-58
2021/08/28 01:30:08;;;;;;;22.02;9.60;;;14.80;99.90;;;;;;5032587;28;20386;-58
2021/08/28 01:32:34;;;;;;;24.30;9.10;;;14.80;99.90;;;;;;5032505;28;20498;-58
2021/08/28 01:35:00;;;;;;;23.27;9.10;;;14.90;99.90;;;;;;5032277;28;20512;-59
2021/08/28 01:37:26;;;;;;;18.95;8.50;;;14.90;99.90;;;;;;5032429;28;20490;-59
2021/08/28 01:39:55;;;;;;;23.13;9.50;;;14.80;99.90;;;;;;5032340;28;20087;-59
2021/08/28 01:42:22;;;;;;;25.60;10.18;;;14.90;99.90;;;;;;5032271;28;20021;-58
2021/08/28 01:44:51;;;;;;;24.58;10.50;;;14.90;99.90;;;;;;5032360;28;20029;-59
2021/08/28 01:47:18;;;;;;;24.30;9.80;;;14.80;99.90;;;;;;5032248;28;20033;-59
2021/08/28 01:49:47;;;;;;;26.20;10.80;;;14.80;99.90;;;;;;5032239;28;20541;-59
2021/08/28 01:52:15;;;;;;;21.45;10.98;;;14.80;99.90;;;;;;5032031;28;20032;-59
2021/08/28 01:54:41;;;;;;;24.50;10.45;;;14.80;99.90;;;;;;5032202;28;20022;-58
2021/08/28 01:57:09;;;;;;;24.48;10.27;;;14.80;99.90;;;;;;5032149;28;20032;-59
2021/08/28 01:59:34;;;;;;;29.05;11.10;;;14.80;99.90;;;;;;5032023;28;20490;-59
2021/08/28 02:02:00;;;;;;;22.60;10.43;;;14.90;99.90;;;;;;5030635;28;20071;-59
2021/08/28 02:04:27;;;;;;;21.58;10.02;;;14.90;99.90;;;;;;5032037;28;20021;-59
2021/08/28 02:07:16;;;;;;;23.13;10.68;;;14.90;99.90;;;;;;5031891;28;20021;-59
2021/08/28 02:09:57;;;;;;;18.90;10.60;;;15.00;99.90;;;;;;5031183;28;20509;-59
2021/08/28 02:12:55;;;;;;;20.88;10.32;;;15.00;99.90;;;;;;5031964;28;20033;-59
2021/08/28 02:15:44;;;;;;;26.95;11.18;;;15.00;99.90;;;;;;5023584;28;20049;-59
2021/08/28 02:18:32;;;;;;;22.00;10.73;;;15.00;99.90;;;;;;5031981;28;20120;-58
2021/08/28 02:21:01;;;;;;;22.30;10.73;;;15.00;99.90;;;;;;5030341;28;20028;-58
2021/08/28 02:23:58;;;;;;;27.63;11.57;;;14.90;99.90;;;;;;5031859;28;20045;-58
2021/08/28 02:26:29;;;;;;;21.63;12.15;;;14.90;99.90;;;;;;5031027;28;20044;-59
2021/08/28 02:29:00;;;;;;;23.45;12.10;;;14.90;99.90;;;;;;5032019;28;20376;-59
2021/08/28 02:31:30;;;;;;;23.17;12.43;;;14.80;99.90;;;;;;5031802;28;20025;-59
2021/08/28 02:33:56;;;;;;;24.00;12.75;;;14.90;99.90;;;;;;5031783;28;20478;-59
2021/08/28 02:36:22;;;;;;;24.88;12.30;;;14.90;99.90;;;;;;5031685;28;20122;-59
2021/08/28 02:38:49;;;;;;;23.90;12.20;;;14.90;99.90;;;;;;5031630;28;20534;-58
2021/08/28 02:41:17;;;;;;;28.35;12.65;;;14.90;99.90;;;;;;5031628;28;20080;-58
2021/08/28 02:43:44;;;;;;;31.85;13.07;;;15.00;99.90;;;;;;5031715;28;20022;-59
2021/08/28 02:46:10;;;;;;;25.33;12.63;;;15.00;99.90;;;;;;5031666;28;20022;-59
2021/08/28 02:48:37;;;;;;;26.73;13.15;;;15.10;99.90;;;;;;5030261;28;20129;-59
2021/08/28 02:51:06;;;;;;;23.13;13.00;;;15.00;99.90;;;;;;5031523;28;20039;-59
2021/08/28 02:53:34;;;;;;;28.42;13.32;;;15.10;99.90;;;;;;5030193;28;20018;-58
2021/08/28 02:56:01;;;;;;;24.77;13.00;;;15.10;99.90;;;;;;5031560;28;20021;-59
2021/08/28 02:58:28;;;;;;;25.98;13.88;;;15.10;99.90;;;;;;5031486;28;20494;-59
2021/08/28 03:00:55;;;;;;;26.52;14.05;;;15.10;99.90;;;;;;5031178;28;20032;-59
2021/08/28 03:03:21;;;;;;;29.88;13.32;;;15.20;99.90;;;;;;5031572;28;20101;-58
2021/08/28 03:05:51;;;;;;;24.63;12.90;;;15.10;99.90;;;;;;5031361;28;20041;-59
2021/08/28 03:08:18;;;;;;;25.15;13.20;;;15.10;99.90;;;;;;5031304;28;20116;-59
2021/08/28 03:10:49;;;;;;;32.70;13.35;;;15.10;99.90;;;;;;5031376;28;20025;-58
2021/08/28 03:13:15;;;;;;;24.05;13.32;;;15.00;99.90;;;;;;5031426;28;20125;-59
2021/08/28 03:15:45;;;;;;;28.50;14.80;;;15.00;99.90;;;;;;5029810;28;20379;-59
2021/08/28 03:18:13;;;;;;;33.70;14.85;;;15.00;99.90;;;;;;5031232;28;20394;-58
2021/08/28 03:20:42;;;;;;;30.25;14.30;;;15.10;99.90;;;;;;5031767;28;20060;-59
2021/08/28 03:23:09;;;;;;;28.35;14.40;;;15.10;99.90;;;;;;5034953;28;20032;-58
2021/08/28 03:25:36;;;;;;;25.52;14.15;;;15.20;99.90;;;;;;5035287;28;20390;-60
2021/08/28 03:28:02;;;;;;;27.00;12.80;;;15.10;99.90;;;;;;5034791;28;20025;-59
2021/08/28 03:30:28;;;;;;;29.75;13.10;;;15.20;99.90;;;;;;5033466;28;20497;-59
2021/08/28 03:32:55;;;;;;;23.13;12.82;;;15.10;99.90;;;;;;5034671;28;20033;-59
2021/08/28 03:35:20;;;;;;;24.58;12.93;;;15.20;99.90;;;;;;5034637;28;20475;-59
2021/08/28 03:37:46;;;;;;;21.20;12.80;;;15.20;99.90;;;;;;5034731;28;20045;-58
2021/08/28 03:40:12;;;;;;;23.98;12.63;;;15.30;99.90;;;;;;5034909;28;20030;-59
2021/08/28 03:42:39;;;;;;;27.33;12.13;;;15.30;99.90;;;;;;5034557;28;20466;-59
2021/08/28 03:45:07;;;;;;;23.55;11.73;;;15.30;99.90;;;;;;5033267;28;20037;-58
2021/08/28 03:47:35;;;;;;;26.38;12.10;;;15.30;99.90;;;;;;5034537;28;20018;-59
2021/08/28 03:50:02;;;;;;;27.15;12.32;;;15.40;99.90;;;;;;5016646;28;20035;-59
2021/08/28 03:52:27;;;;;;;26.38;11.40;;;15.40;99.90;;;;;;5034326;28;20040;-59
2021/08/28 03:54:53;;;;;;;24.33;11.88;;;15.40;99.90;;;;;;5034301;28;20026;-59
2021/08/28 03:57:18;;;;;;;29.70;12.85;;;15.30;99.90;;;;;;5034212;28;20470;-58
2021/08/28 03:59:44;;;;;;;18.13;11.38;;;15.40;99.90;;;;;;5034125;28;20479;-59
2021/08/28 04:02:09;;;;;;;21.17;11.55;;;15.40;99.90;;;;;;5034097;28;20036;-58
2021/08/28 04:04:35;;;;;;;27.13;12.32;;;15.40;99.90;;;;;;5034218;28;20026;-59
2021/08/28 04:07:01;;;;;;;26.58;12.70;;;15.40;99.90;;;;;;5034108;28;20075;-59
2021/08/28 04:09:26;;;;;;;23.05;11.85;;;15.50;99.90;;;;;;5034014;28;20030;-59
2021/08/28 04:11:52;;;;;;;21.73;11.48;;;15.60;99.90;;;;;;5034101;28;20029;-58
2021/08/28 04:14:18;;;;;;;24.48;11.18;;;15.50;99.90;;;;;;5033880;28;20033;-59
2021/08/28 04:16:43;;;;;;;24.85;12.30;;;15.60;99.90;;;;;;5033891;28;20250;-59
2021/08/28 04:19:09;;;;;;;22.00;12.57;;;15.60;99.90;;;;;;5033830;28;20549;-58
2021/08/28 04:21:34;;;;;;;25.02;12.68;;;15.70;99.90;;;;;;5033915;28;20034;-58
2021/08/28 04:24:00;;;;;;;18.92;11.05;;;15.70;99.90;;;;;;5033937;28;20482;-59
2021/08/28 04:26:26;;;;;;;26.67;12.50;;;15.60;99.90;;;;;;5033750;28;20022;-59
2021/08/28 04:28:54;;;;;;;22.25;11.65;;;15.60;99.90;;;;;;5033678;28;20022;-59
2021/08/28 04:31:19;;;;;;;29.45;13.07;;;15.60;99.90;;;;;;5033851;28;20018;-59
2021/08/28 04:33:45;;;;;;;24.58;12.88;;;15.60;99.90;;;;;;5032594;28;20526;-59
2021/08/28 04:36:11;;;;;;;19.30;11.43;;;15.60;99.90;;;;;;5033376;28;20050;-59
2021/08/28 04:38:36;;;;;;;22.73;11.93;;;15.50;99.90;;;;;;5033525;28;20021;-59
2021/08/28 04:41:02;;;;;;;26.25;13.38;;;15.40;99.90;;;;;;5033501;28;20113;-59
2021/08/28 04:43:27;;;;;;;25.25;12.30;;;15.50;99.90;;;;;;5033423;28;20022;-58
2021/08/28 04:45:53;;;;;;;26.40;12.98;;;15.40;99.90;;;;;;5033476;28;20045;-59
2021/08/28 04:48:18;;;;;;;27.13;13.23;;;15.30;99.90;;;;;;5033298;28;20108;-59
2021/08/28 04:50:44;;;;;;;26.48;12.90;;;15.30;99.90;;;;;;5033257;28;20505;-59
2021/08/28 04:53:10;;;;;;;20.35;12.27;;;15.30;99.90;;;;;;5033228;28;20037;-58
2021/08/28 04:55:35;;;;;;;28.45;12.80;;;15.30;99.90;;;;;;5031903;28;20030;-58
2021/08/28 04:58:01;;;;;;;20.70;11.98;;;15.10;99.90;;;;;;5032992;28;20034;-59
2021/08/28 05:00:26;;;;;;;20.88;12.32;;;15.10;99.90;;;;;;5032950;28;20116;-59
2021/08/28 05:02:52;;;;;;;23.05;12.23;;;15.10;99.90;;;;;;5031641;28;20047;-58
2021/08/28 05:05:18;;;;;;;24.05;12.68;;;15.00;99.90;;;;;;5033012;28;20030;-58
2021/08/28 05:07:43;;;;;;;24.40;12.95;;;15.00;99.90;;;;;;5033137;28;20047;-58
2021/08/28 05:10:09;;;;;;;28.30;13.63;;;15.00;99.90;;;;;;5032870;28;20018;-58
2021/08/28 05:12:35;;;;;;;23.17;12.50;;;15.10;99.90;;;;;;5031642;28;20108;-58
2021/08/28 05:15:01;;;;;;;25.77;12.73;;;15.10;99.90;;;;;;5031396;28;20030;-58
2021/08/28 05:17:27;;;;;;;25.23;13.00;;;15.10;99.90;;;;;;5031490;28;20029;-58
2021/08/28 05:19:52;;;;;;;21.55;11.70;;;15.10;99.90;;;;;;5032533;28;20079;-59
2021/08/28 05:22:18;;;;;;;22.42;12.27;;;15.20;99.90;;;;;;5032580;28;20025;-58
2021/08/28 05:24:44;;;;;;;21.42;12.25;;;15.20;99.90;;;;;;5032514;28;20052;-58
2021/08/28 05:27:09;;;;;;;23.27;12.30;;;15.20;99.90;;;;;;5032561;28;20025;-58
2021/08/28 05:29:35;;;;;;;27.40;12.13;;;15.20;99.90;;;;;;5032420;28;20037;-58
2021/08/28 05:32:01;;;;;;;21.75;12.32;;;15.30;99.90;;;;;;5032633;28;20037;-59
2021/08/28 05:34:27;;;;;;;22.25;11.65;;;15.30;99.90;;;;;;5032484;28;20087;-58
2021/08/28 05:36:52;;;;;;;20.67;11.68;;;15.30;99.90;;;;;;5032332;28;20506;-59
2021/08/28 05:39:18;;;;;;;20.23;11.10;;;15.30;99.90;;;;;;5032195;28;20048;-59
2021/08/28 05:41:44;;;;;;;18.40;11.07;;;15.40;99.90;;;;;;5032474;28;20087;-59
2021/08/28 05:44:09;;;;;;;23.48;10.63;;;15.30;99.90;;;;;;5031966;28;20380;-59
2021/08/28 05:46:35;;;;;;;18.10;10.77;;;15.30;99.90;;;;;;5032234;28;20032;-59
2021/08/28 05:49:00;;;;;;;27.10;11.43;;;15.40;99.90;;;;;;5032151;28;20041;-59
2021/08/28 05:51:26;;;;;;;20.75;11.35;;;15.30;99.90;;;;;;5032128;28;20329;-59
2021/08/28 05:53:52;;;;;;;17.88;10.57;;;15.30;99.90;;;;;;5032340;28;20017;-59
2021/08/28 05:56:17;;;;;;;22.42;10.07;;;15.40;99.90;;;;;;5030823;28;20164;-59
2021/08/28 05:58:43;;;;;;;22.52;10.40;;;15.40;99.90;;;;;;5032015;28;20103;-59
2021/08/28 06:01:08;;;;;;;21.98;10.30;;;15.60;99.90;;;;;;5031961;28;20037;-59
2021/08/28 06:03:34;;;;;;;19.52;10.45;;;15.60;99.90;;;;;;5031930;28;20496;-58
2021/08/28 06:05:59;;;;;;;18.85;10.07;;;15.60;99.90;;;;;;5032068;28;20029;-59
2021/08/28 06:08:25;;;;;;;18.63;10.07;;;15.70;99.90;;;;;;5032028;28;20036;-59
2021/08/28 06:10:51;;;;;;;24.40;10.07;;;15.70;99.90;;;;;;5032027;28;20160;-59
2021/08/28 06:13:16;;;;;;;19.23;9.27;;;15.70;99.90;;;;;;5031982;28;20080;-59
2021/08/28 06:15:42;;;;;;;23.55;9.43;;;15.80;99.90;;;;;;5031935;28;20025;-59
2021/08/28 06:18:08;;;;;;;17.83;9.15;;;15.90;99.90;;;;;;5031809;28;20032;-59
2021/08/28 06:20:33;;;;;;;18.75;7.97;;;15.80;99.90;;;;;;5031716;28;20112;-59
2021/08/28 06:22:59;;;;;;;15.00;8.23;;;15.90;99.90;;;;;;5031647;28;20478;-59
2021/08/28 06:25:24;;;;;;;19.75;7.80;;;16.00;99.90;;;;;;5031722;28;20036;-59
2021/08/28 06:27:50;;;;;;;14.60;7.45;;;16.20;99.90;;;;;;5031493;28;20025;-59
2021/08/28 06:30:16;;;;;;;15.63;7.22;;;16.30;99.90;;;;;;5031603;28;20043;-59
2021/08/28 06:32:41;;;;;;;14.13;6.90;;;16.50;99.90;;;;;;5031829;28;20026;-59
2021/08/28 06:35:08;;;;;;;13.75;6.57;;;16.80;99.90;;;;;;5031504;28;20028;-59
2021/08/28 06:37:33;;;;;;;19.42;6.72;;;16.90;99.90;;;;;;5031615;28;20045;-59
2021/08/28 06:39:59;;;;;;;14.98;6.15;;;17.00;99.90;;;;;;5031475;28;20120;-59
2021/08/28 06:42:25;;;;;;;16.85;5.95;;;17.10;99.90;;;;;;5031637;28;20355;-59
2021/08/28 06:44:50;;;;;;;11.77;5.93;;;17.10;99.90;;;;;;5031488;28;20025;-59
2021/08/28 06:47:16;;;;;;;15.38;6.03;;;17.20;99.90;;;;;;5031583;28;20029;-59
2021/08/28 06:49:42;;;;;;;15.40;5.65;;;17.30;99.90;;;;;;5031634;28;20026;-59
2021/08/28 06:52:08;;;;;;;14.10;5.50;;;17.30;99.90;;;;;;5031359;28;20111;-59
2021/08/28 06:54:33;;;;;;;11.93;5.03;;;17.40;99.90;;;;;;5030191;28;20458;-59
2021/08/28 06:56:59;;;;;;;16.08;5.32;;;17.30;99.90;;;;;;5034298;28;20021;-59
2021/08/28 06:59:24;;;;;;;12.45;4.68;;;17.50;99.90;;;;;;5035145;28;20087;-59
2021/08/28 07:01:50;;;;;;;15.32;5.35;;;17.60;99.90;;;;;;5035377;28;20378;-59
2021/08/28 07:04:15;;;;;;;15.23;4.72;;;17.70;99.90;;;;;;5035226;28;20026;-59
2021/08/28 07:06:41;;;;;;;13.43;4.60;;;17.70;99.90;;;;;;5035229;28;20025;-59
2021/08/28 07:09:07;;;;;;;14.13;4.63;;;18.00;99.90;;;;;;5035087;28;20104;-59
2021/08/28 07:11:32;;;;;;;15.05;4.72;;;18.10;99.90;;;;;;5035249;28;20096;-58
2021/08/28 07:13:58;;;;;;;17.17;4.85;;;18.20;99.90;;;;;;5035033;28;20029;-58
2021/08/28 07:16:25;;;;;;;13.45;4.60;;;18.10;99.90;;;;;;5034910;28;20018;-59
2021/08/28 07:18:51;;;;;;;15.05;5.07;;;17.90;99.90;;;;;;5034869;28;20109;-59
2021/08/28 07:21:18;;;;;;;14.90;4.60;;;17.90;99.90;;;;;;5034909;28;20026;-59
2021/08/28 07:23:44;;;;;;;11.48;4.15;;;18.00;99.90;;;;;;5034991;28;20482;-59
2021/08/28 07:26:10;;;;;;;8.65;3.60;;;18.10;99.90;;;;;;5035268;28;20029;-59
2021/08/28 07:28:36;;;;;;;10.20;3.95;;;18.70;99.90;;;;;;5034762;28;20045;-59
2021/08/28 07:31:02;;;;;;;11.80;4.15;;;19.60;99.90;;;;;;5034962;28;20518;-59
2021/08/28 07:33:28;;;;;;;9.65;3.92;;;20.30;99.90;;;;;;5034735;28;20120;-59
2021/08/28 07:35:54;;;;;;;9.20;3.60;;;20.80;99.90;;;;;;5034711;28;20049;-59
2021/08/28 07:38:19;;;;;;;8.18;3.63;;;21.00;99.90;;;;;;5034729;28;20030;-59
2021/08/28 07:40:45;;;;;;;10.15;3.83;;;21.00;99.90;;;;;;5034707;28;20076;-59
2021/08/28 07:43:11;;;;;;;6.30;3.22;;;21.10;99.90;;;;;;5034745;28;20116;-59
2021/08/28 07:45:36;;;;;;;11.32;3.70;;;21.40;99.90;;;;;;5034708;28;20056;-59
2021/08/28 07:48:02;;;;;;;12.00;3.45;;;21.90;99.90;;;;;;5034723;28;20467;-59
2021/08/28 07:50:28;;;;;;;7.15;3.45;;;22.10;99.90;;;;;;5034444;28;20037;-59
2021/08/28 07:52:53;;;;;;;9.30;3.50;;;22.00;99.90;;;;;;5034548;28;20031;-59
2021/08/28 07:55:19;;;;;;;9.73;3.58;;;21.80;99.90;;;;;;5034210;28;20025;-59
2021/08/28 07:57:44;;;;;;;7.88;3.28;;;22.10;99.90;;;;;;5034220;28;20033;-59
2021/08/28 08:00:12;;;;;;;7.95;3.58;;;22.60;99.90;;;;;;5034599;28;20490;-59
2021/08/28 08:02:38;;;;;;;9.50;3.78;;;22.50;99.90;;;;;;5034291;28;20478;-59
2021/08/28 08:05:04;;;;;;;6.68;3.30;;;22.20;99.90;;;;;;5034210;28;20032;-60
2021/08/28 08:07:30;;;;;;;7.28;3.60;;;22.50;99.90;;;;;;5034314;28;20017;-59
2021/08/28 08:09:56;;;;;;;7.68;3.22;;;22.60;99.90;;;;;;5034249;28;20033;-59
2021/08/28 08:12:23;;;;;;;7.28;3.05;;;22.50;99.90;;;;;;5034200;28;20030;-59
2021/08/28 08:14:48;;;;;;;9.02;3.58;;;23.10;99.90;;;;;;5034659;28;20034;-59
2021/08/28 08:17:15;;;;;;;8.38;3.17;;;24.20;99.90;;;;;;5033862;28;20033;-59
2021/08/28 08:19:41;;;;;;;10.65;3.30;;;24.70;99.90;;;;;;5033931;28;20026;-60
2021/08/28 08:22:07;;;;;;;9.10;2.88;;;26.00;99.90;;;;;;5034045;28;20108;-59
2021/08/28 08:24:35;;;;;;;10.95;3.58;;;26.30;99.90;;;;;;5033805;28;20088;-60
2021/08/28 08:27:01;;;;;;;7.60;2.97;;;26.30;99.90;;;;;;5033793;28;20036;-59
2021/08/28 08:29:27;;;;;;;7.82;3.20;;;26.50;99.90;;;;;;5034049;28;20017;-60
2021/08/28 08:31:53;;;;;;;8.30;2.83;;;26.40;99.90;;;;;;5034010;28;20021;-59
2021/08/28 08:34:23;;;;;;;6.72;3.00;;;25.00;99.90;;;;;;5031276;28;20086;-59
2021/08/28 08:36:49;;;;;;;12.63;3.42;;;25.00;99.90;;;;;;5033094;28;20049;-59
2021/08/28 08:39:15;;;;;;;8.50;2.90;;;25.00;99.90;;;;;;5032246;28;20025;-59
2021/08/28 08:41:44;;;;;;;7.40;2.95;;;25.10;99.90;;;;;;5033186;28;20075;-60
2021/08/28 08:44:11;;;;;;;9.18;3.00;;;24.40;99.90;;;;;;5033689;28;20029;-59
2021/08/28 08:46:38;;;;;;;9.05;2.92;;;24.50;99.90;;;;;;5033410;28;20047;-60
2021/08/28 08:49:04;;;;;;;6.25;2.72;;;25.00;99.90;;;;;;5033324;28;20033;-59
2021/08/28 08:51:33;;;;;;;7.63;3.10;;;25.60;99.90;;;;;;5033383;28;20487;-59
2021/08/28 08:54:00;;;;;;;5.00;2.85;;;25.70;99.90;;;;;;5033262;28;20032;-59
2021/08/28 08:56:25;;;;;;;8.18;3.17;;;26.20;99.90;;;;;;5033251;28;20108;-59
2021/08/28 08:58:52;;;;;;;5.85;2.80;;;26.30;99.90;;;;;;5032796;28;20100;-59
2021/08/28 09:01:18;;;;;;;6.32;3.30;;;26.00;99.90;;;;;;5033140;28;20029;-59
2021/08/28 09:03:44;;;;;;;5.65;3.30;;;25.10;99.90;;;;;;5033089;28;20040;-59
2021/08/28 09:06:10;;;;;;;8.13;3.08;;;24.70;99.90;;;;;;5032859;28;20022;-60
2021/08/28 09:08:35;;;;;;;7.82;3.30;;;24.80;99.90;;;;;;5032860;28;20064;-59
2021/08/28 09:11:01;;;;;;;11.57;3.50;;;25.20;99.90;;;;;;5032809;28;20575;-59
2021/08/28 09:13:27;;;;;;;7.40;3.22;;;24.90;99.90;;;;;;5029831;28;20037;-60
2021/08/28 09:16:01;;;;;;;7.75;3.08;;;25.00;99.90;;;;;;5026819;28;20067;-59
2021/08/28 09:18:28;;;;;;;7.75;2.88;;;25.20;99.90;;;;;;5032418;28;20025;-60
2021/08/28 09:20:57;;;;;;;5.43;2.83;;;26.00;99.90;;;;;;5032600;28;20030;-60
2021/08/28 09:23:23;;;;;;;4.55;2.42;;;26.40;99.90;;;;;;5032550;28;20021;-60
2021/08/28 09:25:52;;;;;;;8.52;3.17;;;26.50;99.90;;;;;;5032514;28;20022;-59
2021/08/28 09:28:32;;;;;;;7.50;2.90;;;26.10;99.90;;;;;;5031376;28;20116;-60
2021/08/28 09:31:01;;;;;;;8.00;2.83;;;25.60;99.90;;;;;;5031403;28;20099;-60
2021/08/28 09:33:34;;;;;;;7.85;2.70;;;26.00;99.90;;;;;;5031408;28;20080;-59
2021/08/28 09:36:02;;;;;;;5.53;2.45;;;25.30;99.90;;;;;;5030062;28;20076;-60
2021/08/28 09:38:27;;;;;;;6.40;2.70;;;25.30;99.90;;;;;;5021274;28;20025;-60
2021/08/28 09:40:55;;;;;;;4.85;2.50;;;24.60;99.90;;;;;;5047916;28;20040;-60
2021/08/28 09:43:22;;;;;;;7.05;2.90;;;23.70;99.90;;;;;;5050102;28;20112;-59
2021/08/28 09:45:50;;;;;;;6.20;2.95;;;22.90;99.90;;;;;;5032160;28;20087;-59
2021/08/28 09:48:18;;;;;;;9.00;3.42;;;23.20;99.90;;;;;;5030619;28;20033;-59
2021/08/28 09:50:49;;;;;;;5.00;3.10;;;24.00;99.90;;;;;;5031462;28;20064;-59
2021/08/28 09:53:22;;;;;;;5.00;3.20;;;23.80;99.90;;;;;;5028865;28;20029;-59
2021/08/28 09:55:58;;;;;;;5.50;3.45;;;23.70;99.90;;;;;;5030700;28;20033;-59
2021/08/28 09:58:32;;;;;;;7.80;3.30;;;23.60;99.90;;;;;;5032149;28;20032;-59
2021/08/28 10:01:02;;;;;;;9.15;3.00;;;23.50;99.90;;;;;;5031466;28;20490;-59
2021/08/28 10:03:29;;;;;;;7.25;3.10;;;23.60;99.90;;;;;;5031639;28;20113;-59
2021/08/28 10:05:56;;;;;;;9.35;2.92;;;23.90;99.90;;;;;;5031985;28;20030;-59
2021/08/28 10:08:22;;;;;;;5.03;3.10;;;23.70;99.90;;;;;;5031824;28;20485;-60
2021/08/28 10:10:50;;;;;;;9.18;3.35;;;23.40;99.90;;;;;;5031882;28;20033;-59
2021/08/28 10:13:20;;;;;;;4.30;2.78;;;23.60;99.90;;;;;;5031635;28;20489;-60
2021/08/28 10:15:47;;;;;;;5.95;3.00;;;23.50;99.90;;;;;;5031073;28;20022;-59
2021/08/28 10:18:14;;;;;;;7.43;2.78;;;23.30;99.90;;;;;;5028182;28;20060;-59
2021/08/28 10:20:41;;;;;;;9.55;3.20;;;23.10;99.90;;;;;;5031740;28;20045;-59
2021/08/28 10:23:08;;;;;;;7.07;3.10;;;22.80;99.90;;;;;;5031703;28;20501;-59
2021/08/28 10:25:36;;;;;;;7.28;3.20;;;22.60;99.90;;;;;;5031704;28;20083;-59
2021/08/28 10:28:06;;;;;;;8.43;3.30;;;22.40;99.90;;;;;;5031598;28;20037;-59
2021/08/28 10:30:32;;;;;;;6.95;3.03;;;22.20;99.90;;;;;;5031156;28;20028;-59
2021/08/28 10:32:58;;;;;;;6.18;3.05;;;22.20;99.90;;;;;;5033936;28;20031;-59
2021/08/28 10:35:24;;;;;;;6.93;3.70;;;22.00;99.90;;;;;;5035208;28;20115;-59
2021/08/28 10:37:50;;;;;;;9.57;3.20;;;22.30;99.90;;;;;;5035932;28;20106;-59
2021/08/28 10:40:25;;;;;;;8.75;3.20;;;22.70;99.90;;;;;;5035110;28;20030;-59
2021/08/28 10:42:54;;;;;;;7.30;3.10;;;22.50;99.90;;;;;;5035783;28;20109;-59
2021/08/28 10:45:31;;;;;;;5.10;2.45;;;22.30;99.90;;;;;;5035267;28;20029;-59
2021/08/28 10:47:59;;;;;;;6.05;3.05;;;22.30;99.90;;;;;;5035317;28;20474;-59
2021/08/28 10:50:28;;;;;;;6.68;3.33;;;22.20;99.90;;;;;;5034918;28;20037;-59
2021/08/28 10:52:58;;;;;;;5.28;2.95;;;22.90;99.90;;;;;;5035329;28;20039;-59
2021/08/28 10:55:39;;;;;;;4.93;3.10;;;23.40;99.90;;;;;;5034832;28;20025;-59
2021/08/28 10:58:12;;;;;;;9.40;3.70;;;23.10;99.90;;;;;;5033044;28;20083;-60
2021/08/28 11:00:45;;;;;;;6.90;3.25;;;23.50;99.90;;;;;;5034944;28;20056;-59
2021/08/28 11:03:32;;;;;;;6.35;3.10;;;23.40;99.90;;;;;;5035482;28;20083;-59
2021/08/28 11:06:16;;;;;;;4.88;2.97;;;23.90;99.90;;;;;;5035892;28;20021;-60
2021/08/28 11:08:56;;;;;;;8.30;3.55;;;24.00;99.90;;;;;;5035236;28;20090;-59
2021/08/28 11:11:35;;;;;;;7.35;3.72;;;23.90;99.90;;;;;;5035196;28;20021;-60
2021/08/28 11:14:40;;;;;;;7.53;3.65;;;23.60;99.90;;;;;;5034285;28;20026;-60
2021/08/28 11:17:11;;;;;;;5.47;3.70;;;23.10;99.90;;;;;;5035265;28;20029;-59
2021/08/28 11:19:48;;;;;;;9.10;4.90;;;22.20;99.90;;;;;;5034948;28;20030;-59
2021/08/28 11:22:22;;;;;;;8.10;4.03;;;21.80;99.90;;;;;;5034898;28;20386;-59
2021/08/28 11:24:55;;;;;;;7.35;4.18;;;21.20;99.90;;;;;;5034659;28;20025;-59
2021/08/28 11:27:37;;;;;;;10.48;4.40;;;20.80;99.90;;;;;;5034999;28;20380;-59
2021/08/28 11:30:03;;;;;;;9.47;4.87;;;20.30;99.90;;;;;;5034876;28;20025;-59
2021/08/28 11:32:29;;;;;;;7.82;4.75;;;20.30;99.90;;;;;;5034823;28;20752;-58
2021/08/28 11:34:57;;;;;;;7.15;4.63;;;20.50;99.90;;;;;;5034938;28;20029;-58
2021/08/28 11:37:26;;;;;;;7.75;4.13;;;20.50;99.90;;;;;;5034632;28;20054;-59
2021/08/28 11:39:53;;;;;;;6.00;4.00;;;20.50;99.90;;;;;;5034816;28;20470;-59
2021/08/28 11:42:19;;;;;;;5.35;3.88;;;20.40;99.90;;;;;;5033979;28;20121;-59
2021/08/28 11:44:49;;;;;;;4.68;3.45;;;20.30;99.90;;;;;;5034314;28;20112;-59
2021/08/28 11:47:14;;;;;;;5.00;2.90;;;20.30;99.90;;;;;;5034163;28;20029;-59
2021/08/28 11:49:41;;;;;;;6.18;3.15;;;20.40;99.90;;;;;;5033935;28;20036;-59
2021/08/28 11:52:07;;;;;;;4.45;3.25;;;20.70;99.90;;;;;;5034228;28;20087;-59
2021/08/28 11:54:33;;;;;;;3.97;2.60;;;20.80;99.90;;;;;;5034488;28;20034;-59
2021/08/28 11:56:59;;;;;;;5.07;2.95;;;20.80;99.90;;;;;;5034132;28;20104;-59
2021/08/28 11:59:39;;;;;;;6.90;2.95;;;20.90;99.90;;;;;;5033735;28;20548;-59
2021/08/28 12:02:05;;;;;;;6.05;3.00;;;21.10;99.90;;;;;;5033197;28;20057;-59
2021/08/28 12:04:37;;;;;;;8.70;3.58;;;21.30;99.90;;;;;;5033842;28;20056;-59
2021/08/28 12:07:04;;;;;;;5.40;2.95;;;21.50;99.90;;;;;;5034026;28;20474;-59
2021/08/28 12:09:31;;;;;;;6.38;2.92;;;21.50;99.90;;;;;;5033771;28;20060;-59
2021/08/28 12:11:57;;;;;;;5.18;2.90;;;22.60;99.90;;;;;;5033779;28;20022;-59
2021/08/28 12:14:28;;;;;;;5.88;3.47;;;23.60;99.90;;;;;;5033139;28;20029;-59
2021/08/28 12:20:23;;;;;;;6.38;3.50;;;24.40;99.90;;;;;;5033741;28;20125;-60
2021/08/28 12:22:50;;;;;;;9.07;3.95;;;25.40;99.90;;;;;;5034021;28;20037;-60
2021/08/28 12:25:16;;;;;;;6.93;3.50;;;25.90;99.90;;;;;;5033842;28;20033;-60
2021/08/28 12:27:45;;;;;;;8.55;3.55;;;26.30;99.90;;;;;;5033709;28;20040;-60
2021/08/28 12:30:11;;;;;;;7.90;3.72;;;26.00;99.90;;;;;;5033857;28;20037;-60
2021/08/28 12:32:36;;;;;;;6.65;3.25;;;26.60;99.90;;;;;;5033529;28;20037;-60
2021/08/28 12:35:02;;;;;;;4.38;3.00;;;26.90;99.90;;;;;;5033532;28;20032;-60
2021/08/28 12:37:31;;;;;;;6.05;3.00;;;26.60;99.90;;;;;;5033323;28;20470;-60
2021/08/28 12:39:59;;;;;;;7.00;3.25;;;26.20;99.90;;;;;;5033559;28;20029;-60
2021/08/28 12:42:29;;;;;;;6.35;3.55;;;25.70;99.90;;;;;;5033452;28;20025;-59
2021/08/28 12:44:58;;;;;;;8.55;3.72;;;24.90;99.90;;;;;;5033499;28;20429;-59